sensor_id;sensor_type;location;lat;lon;timestamp;P1;durP1;ratioP1;P2;durP2;ratioP2
79361;SDS011;68830;47.566;19.012;2023-07-28T00:00:10;3.10;;;2.40;;
79361;SDS011;68830;47.566;19.012;2023-07-28T00:03:13;4.30;;;2.00;;
79361;SDS011;68830;47.566;19.012;2023-07-28T00:06:15;3.25;;;2.35;;
79361;SDS011;68830;47.566;19.012;2023-07-28T00:09:17;2.35;;;1.95;;
79361;SDS011;68830;47.566;19.012;2023-07-28T00:12:20;3.67;;;2.58;;
79361;SDS011;68830;47.566;19.012;2023-07-28T00:15:23;2.58;;;2.00;;
79361;SDS011;68830;47.566;19.012;2023-07-28T00:18:25;4.88;;;2.33;;
79361;SDS011;68830;47.566;19.012;2023-07-28T00:21:27;3.95;;;1.90;;
79361;SDS011;68830;47.566;19.012;2023-07-28T00:24:29;2.30;;;1.90;;
79361;SDS011;68830;47.566;19.012;2023-07-28T00:27:32;3.83;;;1.90;;
79361;SDS011;68830;47.566;19.012;2023-07-28T00:30:35;3.95;;;2.00;;
79361;SDS011;68830;47.566;19.012;2023-07-28T00:33:37;2.20;;;1.98;;
79361;SDS011;68830;47.566;19.012;2023-07-28T00:36:41;2.75;;;1.90;;
79361;SDS011;68830;47.566;19.012;2023-07-28T00:39:43;3.10;;;2.10;;
79361;SDS011;68830;47.566;19.012;2023-07-28T00:42:46;4.35;;;2.33;;
79361;SDS011;68830;47.566;19.012;2023-07-28T00:45:48;2.55;;;2.17;;
79361;SDS011;68830;47.566;19.012;2023-07-28T00:48:50;2.88;;;2.17;;
79361;SDS011;68830;47.566;19.012;2023-07-28T00:51:53;2.00;;;1.67;;
79361;SDS011;68830;47.566;19.012;2023-07-28T00:54:55;3.13;;;2.20;;
79361;SDS011;68830;47.566;19.012;2023-07-28T00:57:58;3.40;;;2.47;;
79361;SDS011;68830;47.566;19.012;2023-07-28T01:01:01;3.15;;;2.20;;
79361;SDS011;68830;47.566;19.012;2023-07-28T01:04:04;2.42;;;2.00;;
79361;SDS011;68830;47.566;19.012;2023-07-28T01:07:08;2.33;;;1.80;;
79361;SDS011;68830;47.566;19.012;2023-07-28T01:10:17;3.08;;;1.80;;
79361;SDS011;68830;47.566;19.012;2023-07-28T01:13:25;3.33;;;1.90;;
79361;SDS011;68830;47.566;19.012;2023-07-28T01:16:28;2.65;;;2.10;;
79361;SDS011;68830;47.566;19.012;2023-07-28T01:19:30;2.80;;;2.10;;
79361;SDS011;68830;47.566;19.012;2023-07-28T01:22:46;2.70;;;1.90;;
79361;SDS011;68830;47.566;19.012;2023-07-28T01:25:55;2.55;;;2.13;;
79361;SDS011;68830;47.566;19.012;2023-07-28T01:29:07;2.80;;;1.90;;
79361;SDS011;68830;47.566;19.012;2023-07-28T01:32:10;2.13;;;1.70;;
79361;SDS011;68830;47.566;19.012;2023-07-28T01:35:13;2.75;;;2.05;;
79361;SDS011;68830;47.566;19.012;2023-07-28T01:38:14;2.42;;;1.73;;
79361;SDS011;68830;47.566;19.012;2023-07-28T01:41:18;2.72;;;1.92;;
79361;SDS011;68830;47.566;19.012;2023-07-28T01:44:21;2.10;;;1.90;;
79361;SDS011;68830;47.566;19.012;2023-07-28T01:47:23;3.17;;;2.38;;
79361;SDS011;68830;47.566;19.012;2023-07-28T01:50:26;3.97;;;1.63;;
79361;SDS011;68830;47.566;19.012;2023-07-28T01:53:28;2.95;;;1.90;;
79361;SDS011;68830;47.566;19.012;2023-07-28T01:56:30;4.32;;;2.55;;
79361;SDS011;68830;47.566;19.012;2023-07-28T01:59:34;2.28;;;1.70;;
79361;SDS011;68830;47.566;19.012;2023-07-28T02:02:36;2.42;;;1.85;;
79361;SDS011;68830;47.566;19.012;2023-07-28T02:05:38;2.17;;;1.77;;
79361;SDS011;68830;47.566;19.012;2023-07-28T02:08:40;2.30;;;2.10;;
79361;SDS011;68830;47.566;19.012;2023-07-28T02:11:42;2.83;;;1.95;;
79361;SDS011;68830;47.566;19.012;2023-07-28T02:14:46;2.70;;;1.88;;
79361;SDS011;68830;47.566;19.012;2023-07-28T02:17:48;2.53;;;1.95;;
79361;SDS011;68830;47.566;19.012;2023-07-28T02:20:51;3.53;;;2.65;;
79361;SDS011;68830;47.566;19.012;2023-07-28T02:23:52;4.07;;;2.10;;
79361;SDS011;68830;47.566;19.012;2023-07-28T02:26:54;2.75;;;2.38;;
79361;SDS011;68830;47.566;19.012;2023-07-28T02:29:58;3.05;;;2.22;;
79361;SDS011;68830;47.566;19.012;2023-07-28T02:33:00;2.85;;;2.03;;
79361;SDS011;68830;47.566;19.012;2023-07-28T02:36:02;2.83;;;2.53;;
79361;SDS011;68830;47.566;19.012;2023-07-28T02:39:05;3.08;;;2.00;;
79361;SDS011;68830;47.566;19.012;2023-07-28T02:42:07;4.28;;;1.95;;
79361;SDS011;68830;47.566;19.012;2023-07-28T02:45:12;2.15;;;1.58;;
79361;SDS011;68830;47.566;19.012;2023-07-28T02:48:14;2.55;;;1.85;;
79361;SDS011;68830;47.566;19.012;2023-07-28T02:51:16;2.20;;;1.70;;
79361;SDS011;68830;47.566;19.012;2023-07-28T02:54:18;3.20;;;2.10;;
79361;SDS011;68830;47.566;19.012;2023-07-28T02:57:20;2.33;;;1.90;;
79361;SDS011;68830;47.566;19.012;2023-07-28T03:00:24;2.25;;;1.77;;
79361;SDS011;68830;47.566;19.012;2023-07-28T03:03:26;2.35;;;1.70;;
79361;SDS011;68830;47.566;19.012;2023-07-28T03:06:28;2.58;;;1.55;;
79361;SDS011;68830;47.566;19.012;2023-07-28T03:09:31;2.58;;;1.95;;
79361;SDS011;68830;47.566;19.012;2023-07-28T03:12:33;2.03;;;1.83;;
79361;SDS011;68830;47.566;19.012;2023-07-28T03:15:36;2.08;;;1.65;;
79361;SDS011;68830;47.566;19.012;2023-07-28T03:18:38;2.85;;;1.88;;
79361;SDS011;68830;47.566;19.012;2023-07-28T03:21:40;2.80;;;1.92;;
79361;SDS011;68830;47.566;19.012;2023-07-28T03:24:42;1.80;;;1.40;;
79361;SDS011;68830;47.566;19.012;2023-07-28T03:30:50;2.45;;;1.80;;
79361;SDS011;68830;47.566;19.012;2023-07-28T03:33:53;4.28;;;2.38;;
79361;SDS011;68830;47.566;19.012;2023-07-28T03:36:55;3.30;;;2.00;;
79361;SDS011;68830;47.566;19.012;2023-07-28T03:39:57;1.90;;;1.60;;
79361;SDS011;68830;47.566;19.012;2023-07-28T03:42:59;2.13;;;1.77;;
79361;SDS011;68830;47.566;19.012;2023-07-28T03:46:03;2.30;;;2.10;;
79361;SDS011;68830;47.566;19.012;2023-07-28T03:49:05;3.13;;;2.17;;
79361;SDS011;68830;47.566;19.012;2023-07-28T03:52:07;3.15;;;1.67;;
79361;SDS011;68830;47.566;19.012;2023-07-28T03:55:09;7.43;;;2.17;;
79361;SDS011;68830;47.566;19.012;2023-07-28T03:58:11;4.03;;;1.80;;
79361;SDS011;68830;47.566;19.012;2023-07-28T04:01:14;2.70;;;1.88;;
79361;SDS011;68830;47.566;19.012;2023-07-28T04:04:17;3.42;;;1.95;;
79361;SDS011;68830;47.566;19.012;2023-07-28T04:07:19;1.67;;;1.58;;
79361;SDS011;68830;47.566;19.012;2023-07-28T04:10:21;2.38;;;1.77;;
79361;SDS011;68830;47.566;19.012;2023-07-28T04:13:23;3.35;;;2.28;;
79361;SDS011;68830;47.566;19.012;2023-07-28T04:16:26;4.50;;;2.25;;
79361;SDS011;68830;47.566;19.012;2023-07-28T04:19:29;2.47;;;2.00;;
79361;SDS011;68830;47.566;19.012;2023-07-28T04:22:31;2.50;;;2.08;;
79361;SDS011;68830;47.566;19.012;2023-07-28T04:25:33;2.33;;;1.80;;
79361;SDS011;68830;47.566;19.012;2023-07-28T04:28:35;2.35;;;1.77;;
79361;SDS011;68830;47.566;19.012;2023-07-28T04:31:38;3.58;;;2.05;;
79361;SDS011;68830;47.566;19.012;2023-07-28T04:34:41;3.22;;;2.28;;
79361;SDS011;68830;47.566;19.012;2023-07-28T04:37:43;2.80;;;2.10;;
79361;SDS011;68830;47.566;19.012;2023-07-28T04:40:46;2.80;;;1.85;;
79361;SDS011;68830;47.566;19.012;2023-07-28T04:43:48;2.78;;;1.90;;
79361;SDS011;68830;47.566;19.012;2023-07-28T04:46:51;2.47;;;2.00;;
79361;SDS011;68830;47.566;19.012;2023-07-28T04:49:54;2.60;;;2.05;;
79361;SDS011;68830;47.566;19.012;2023-07-28T04:52:56;4.45;;;2.17;;
79361;SDS011;68830;47.566;19.012;2023-07-28T04:55:58;2.72;;;2.00;;
79361;SDS011;68830;47.566;19.012;2023-07-28T04:59:00;2.67;;;2.10;;
79361;SDS011;68830;47.566;19.012;2023-07-28T05:02:03;2.95;;;2.00;;
79361;SDS011;68830;47.566;19.012;2023-07-28T05:05:06;3.38;;;1.75;;
79361;SDS011;68830;47.566;19.012;2023-07-28T05:08:08;4.03;;;2.55;;
79361;SDS011;68830;47.566;19.012;2023-07-28T05:11:10;2.70;;;2.25;;
79361;SDS011;68830;47.566;19.012;2023-07-28T05:14:12;2.65;;;2.00;;
79361;SDS011;68830;47.566;19.012;2023-07-28T05:17:15;3.70;;;2.28;;
79361;SDS011;68830;47.566;19.012;2023-07-28T05:23:22;2.65;;;1.83;;
79361;SDS011;68830;47.566;19.012;2023-07-28T05:26:24;2.53;;;1.73;;
79361;SDS011;68830;47.566;19.012;2023-07-28T05:29:26;2.70;;;1.98;;
79361;SDS011;68830;47.566;19.012;2023-07-28T05:32:29;3.30;;;2.13;;
79361;SDS011;68830;47.566;19.012;2023-07-28T05:35:31;2.50;;;1.98;;
79361;SDS011;68830;47.566;19.012;2023-07-28T05:38:33;2.95;;;1.95;;
79361;SDS011;68830;47.566;19.012;2023-07-28T05:41:36;3.17;;;2.10;;
79361;SDS011;68830;47.566;19.012;2023-07-28T05:44:38;4.68;;;2.15;;
79361;SDS011;68830;47.566;19.012;2023-07-28T05:47:41;3.58;;;2.22;;
79361;SDS011;68830;47.566;19.012;2023-07-28T05:50:44;3.30;;;2.20;;
79361;SDS011;68830;47.566;19.012;2023-07-28T05:53:46;2.72;;;1.90;;
79361;SDS011;68830;47.566;19.012;2023-07-28T05:56:48;1.67;;;1.58;;
79361;SDS011;68830;47.566;19.012;2023-07-28T05:59:50;2.50;;;1.83;;
79361;SDS011;68830;47.566;19.012;2023-07-28T06:02:54;3.00;;;2.33;;
79361;SDS011;68830;47.566;19.012;2023-07-28T06:05:56;2.75;;;2.40;;
79361;SDS011;68830;47.566;19.012;2023-07-28T06:08:58;3.35;;;3.00;;
79361;SDS011;68830;47.566;19.012;2023-07-28T06:12:03;4.38;;;2.67;;
79361;SDS011;68830;47.566;19.012;2023-07-28T06:15:07;3.80;;;2.80;;
79361;SDS011;68830;47.566;19.012;2023-07-28T06:18:10;4.70;;;2.83;;
79361;SDS011;68830;47.566;19.012;2023-07-28T06:21:13;3.55;;;2.40;;
79361;SDS011;68830;47.566;19.012;2023-07-28T06:24:15;2.70;;;2.50;;
79361;SDS011;68830;47.566;19.012;2023-07-28T06:27:17;4.65;;;2.63;;
79361;SDS011;68830;47.566;19.012;2023-07-28T06:30:19;5.13;;;3.03;;
79361;SDS011;68830;47.566;19.012;2023-07-28T06:33:24;2.85;;;2.10;;
79361;SDS011;68830;47.566;19.012;2023-07-28T06:36:27;2.85;;;2.15;;
79361;SDS011;68830;47.566;19.012;2023-07-28T06:39:32;2.63;;;1.88;;
79361;SDS011;68830;47.566;19.012;2023-07-28T06:42:34;2.80;;;2.05;;
79361;SDS011;68830;47.566;19.012;2023-07-28T06:45:36;2.85;;;2.25;;
79361;SDS011;68830;47.566;19.012;2023-07-28T06:48:40;3.53;;;2.10;;
79361;SDS011;68830;47.566;19.012;2023-07-28T06:51:42;3.03;;;2.13;;
79361;SDS011;68830;47.566;19.012;2023-07-28T06:54:44;4.38;;;2.00;;
79361;SDS011;68830;47.566;19.012;2023-07-28T06:57:46;2.80;;;2.28;;
79361;SDS011;68830;47.566;19.012;2023-07-28T07:00:48;4.53;;;2.95;;
79361;SDS011;68830;47.566;19.012;2023-07-28T07:03:51;2.65;;;2.15;;
79361;SDS011;68830;47.566;19.012;2023-07-28T07:06:54;2.80;;;2.40;;
79361;SDS011;68830;47.566;19.012;2023-07-28T07:09:56;5.90;;;2.60;;
79361;SDS011;68830;47.566;19.012;2023-07-28T07:12:57;3.72;;;2.50;;
79361;SDS011;68830;47.566;19.012;2023-07-28T07:15:59;2.72;;;2.33;;
79361;SDS011;68830;47.566;19.012;2023-07-28T07:19:03;3.83;;;2.55;;
79361;SDS011;68830;47.566;19.012;2023-07-28T07:22:05;4.72;;;2.78;;
79361;SDS011;68830;47.566;19.012;2023-07-28T07:25:07;3.00;;;2.70;;
79361;SDS011;68830;47.566;19.012;2023-07-28T07:28:11;3.88;;;2.72;;
79361;SDS011;68830;47.566;19.012;2023-07-28T07:31:13;5.82;;;2.83;;
79361;SDS011;68830;47.566;19.012;2023-07-28T07:34:17;3.58;;;2.55;;
79361;SDS011;68830;47.566;19.012;2023-07-28T07:37:19;4.28;;;2.35;;
79361;SDS011;68830;47.566;19.012;2023-07-28T07:40:22;3.10;;;2.80;;
79361;SDS011;68830;47.566;19.012;2023-07-28T07:43:27;3.53;;;2.25;;
79361;SDS011;68830;47.566;19.012;2023-07-28T07:46:29;4.65;;;2.85;;
79361;SDS011;68830;47.566;19.012;2023-07-28T07:49:33;3.58;;;2.70;;
79361;SDS011;68830;47.566;19.012;2023-07-28T07:52:35;2.80;;;2.45;;
79361;SDS011;68830;47.566;19.012;2023-07-28T07:55:41;5.30;;;2.60;;
79361;SDS011;68830;47.566;19.012;2023-07-28T07:58:43;4.78;;;2.65;;
79361;SDS011;68830;47.566;19.012;2023-07-28T08:01:46;4.85;;;3.13;;
79361;SDS011;68830;47.566;19.012;2023-07-28T08:04:49;2.85;;;2.55;;
79361;SDS011;68830;47.566;19.012;2023-07-28T08:07:51;4.82;;;2.67;;
79361;SDS011;68830;47.566;19.012;2023-07-28T08:10:53;3.08;;;2.25;;
79361;SDS011;68830;47.566;19.012;2023-07-28T08:13:55;4.07;;;2.42;;
79361;SDS011;68830;47.566;19.012;2023-07-28T08:16:57;3.00;;;2.42;;
79361;SDS011;68830;47.566;19.012;2023-07-28T08:20:01;5.20;;;2.92;;
79361;SDS011;68830;47.566;19.012;2023-07-28T08:23:03;4.13;;;2.50;;
79361;SDS011;68830;47.566;19.012;2023-07-28T08:26:05;2.80;;;2.17;;
79361;SDS011;68830;47.566;19.012;2023-07-28T08:29:07;3.67;;;2.30;;
79361;SDS011;68830;47.566;19.012;2023-07-28T08:32:08;3.13;;;2.65;;
79361;SDS011;68830;47.566;19.012;2023-07-28T08:35:12;3.22;;;2.45;;
79361;SDS011;68830;47.566;19.012;2023-07-28T08:38:14;3.38;;;2.42;;
79361;SDS011;68830;47.566;19.012;2023-07-28T08:41:17;4.13;;;2.90;;
79361;SDS011;68830;47.566;19.012;2023-07-28T08:44:18;4.22;;;2.05;;
79361;SDS011;68830;47.566;19.012;2023-07-28T08:47:21;6.90;;;2.38;;
79361;SDS011;68830;47.566;19.012;2023-07-28T08:50:24;5.70;;;2.55;;
79361;SDS011;68830;47.566;19.012;2023-07-28T08:53:27;3.72;;;2.80;;
79361;SDS011;68830;47.566;19.012;2023-07-28T08:56:28;4.72;;;2.53;;
79361;SDS011;68830;47.566;19.012;2023-07-28T08:59:31;5.22;;;2.70;;
79361;SDS011;68830;47.566;19.012;2023-07-28T09:02:34;5.40;;;2.95;;
79361;SDS011;68830;47.566;19.012;2023-07-28T09:05:37;3.42;;;2.80;;
79361;SDS011;68830;47.566;19.012;2023-07-28T09:08:43;2.70;;;2.50;;
79361;SDS011;68830;47.566;19.012;2023-07-28T09:11:45;5.70;;;2.55;;
79361;SDS011;68830;47.566;19.012;2023-07-28T09:14:47;4.28;;;2.42;;
79361;SDS011;68830;47.566;19.012;2023-07-28T09:17:58;3.78;;;2.22;;
79361;SDS011;68830;47.566;19.012;2023-07-28T09:24:05;3.25;;;2.33;;
79361;SDS011;68830;47.566;19.012;2023-07-28T09:27:12;3.65;;;2.45;;
79361;SDS011;68830;47.566;19.012;2023-07-28T09:30:22;3.50;;;2.25;;
79361;SDS011;68830;47.566;19.012;2023-07-28T09:33:29;4.70;;;2.30;;
79361;SDS011;68830;47.566;19.012;2023-07-28T09:36:33;2.33;;;2.10;;
79361;SDS011;68830;47.566;19.012;2023-07-28T09:39:36;3.08;;;2.40;;
79361;SDS011;68830;47.566;19.012;2023-07-28T09:42:38;3.33;;;2.65;;
79361;SDS011;68830;47.566;19.012;2023-07-28T09:45:42;3.20;;;2.63;;
79361;SDS011;68830;47.566;19.012;2023-07-28T09:48:45;4.38;;;2.10;;
79361;SDS011;68830;47.566;19.012;2023-07-28T09:51:57;4.13;;;2.90;;
79361;SDS011;68830;47.566;19.012;2023-07-28T09:55:06;3.72;;;2.67;;
79361;SDS011;68830;47.566;19.012;2023-07-28T09:58:10;2.70;;;2.40;;
79361;SDS011;68830;47.566;19.012;2023-07-28T10:01:18;3.90;;;2.55;;
79361;SDS011;68830;47.566;19.012;2023-07-28T10:04:21;3.60;;;2.58;;
79361;SDS011;68830;47.566;19.012;2023-07-28T10:07:25;2.85;;;2.33;;
79361;SDS011;68830;47.566;19.012;2023-07-28T10:10:27;3.97;;;3.63;;
79361;SDS011;68830;47.566;19.012;2023-07-28T10:13:33;3.67;;;2.50;;
79361;SDS011;68830;47.566;19.012;2023-07-28T10:16:43;2.80;;;2.35;;
79361;SDS011;68830;47.566;19.012;2023-07-28T10:19:46;5.45;;;2.75;;
79361;SDS011;68830;47.566;19.012;2023-07-28T10:22:49;2.85;;;2.08;;
79361;SDS011;68830;47.566;19.012;2023-07-28T10:25:56;3.67;;;2.20;;
79361;SDS011;68830;47.566;19.012;2023-07-28T10:29:09;2.90;;;2.60;;
79361;SDS011;68830;47.566;19.012;2023-07-28T10:32:12;4.22;;;2.63;;
79361;SDS011;68830;47.566;19.012;2023-07-28T10:35:27;3.30;;;2.72;;
79361;SDS011;68830;47.566;19.012;2023-07-28T10:38:34;3.50;;;2.65;;
79361;SDS011;68830;47.566;19.012;2023-07-28T10:41:38;7.40;;;3.25;;
79361;SDS011;68830;47.566;19.012;2023-07-28T10:44:43;3.45;;;2.75;;
79361;SDS011;68830;47.566;19.012;2023-07-28T10:47:45;4.30;;;2.50;;
79361;SDS011;68830;47.566;19.012;2023-07-28T10:50:49;3.78;;;2.45;;
79361;SDS011;68830;47.566;19.012;2023-07-28T10:53:54;6.40;;;2.58;;
79361;SDS011;68830;47.566;19.012;2023-07-28T10:56:57;4.50;;;3.03;;
79361;SDS011;68830;47.566;19.012;2023-07-28T11:00:04;3.45;;;2.40;;
79361;SDS011;68830;47.566;19.012;2023-07-28T11:03:07;5.63;;;2.97;;
79361;SDS011;68830;47.566;19.012;2023-07-28T11:06:11;3.22;;;2.67;;
79361;SDS011;68830;47.566;19.012;2023-07-28T11:09:16;3.58;;;2.47;;
79361;SDS011;68830;47.566;19.012;2023-07-28T11:12:19;4.70;;;2.58;;
79361;SDS011;68830;47.566;19.012;2023-07-28T11:15:22;5.22;;;2.95;;
79361;SDS011;68830;47.566;19.012;2023-07-28T11:18:26;2.65;;;2.40;;
79361;SDS011;68830;47.566;19.012;2023-07-28T11:21:28;6.03;;;2.95;;
79361;SDS011;68830;47.566;19.012;2023-07-28T11:24:33;2.97;;;2.50;;
79361;SDS011;68830;47.566;19.012;2023-07-28T11:27:36;3.35;;;2.78;;
79361;SDS011;68830;47.566;19.012;2023-07-28T11:30:39;2.65;;;2.42;;
79361;SDS011;68830;47.566;19.012;2023-07-28T11:33:42;3.30;;;2.63;;
79361;SDS011;68830;47.566;19.012;2023-07-28T11:36:44;3.42;;;3.13;;
79361;SDS011;68830;47.566;19.012;2023-07-28T11:39:48;4.35;;;2.40;;
79361;SDS011;68830;47.566;19.012;2023-07-28T11:42:51;4.25;;;2.63;;
79361;SDS011;68830;47.566;19.012;2023-07-28T11:45:55;3.83;;;3.00;;
79361;SDS011;68830;47.566;19.012;2023-07-28T11:49:07;3.75;;;2.45;;
79361;SDS011;68830;47.566;19.012;2023-07-28T11:52:11;3.95;;;2.40;;
79361;SDS011;68830;47.566;19.012;2023-07-28T11:55:15;4.40;;;2.47;;
79361;SDS011;68830;47.566;19.012;2023-07-28T11:58:18;3.95;;;2.63;;
79361;SDS011;68830;47.566;19.012;2023-07-28T12:01:24;2.80;;;2.30;;
79361;SDS011;68830;47.566;19.012;2023-07-28T12:04:27;4.32;;;2.42;;
79361;SDS011;68830;47.566;19.012;2023-07-28T12:07:33;3.95;;;2.63;;
79361;SDS011;68830;47.566;19.012;2023-07-28T12:10:49;4.40;;;2.92;;
79361;SDS011;68830;47.566;19.012;2023-07-28T12:13:59;4.68;;;2.63;;
79361;SDS011;68830;47.566;19.012;2023-07-28T12:17:11;3.17;;;2.47;;
79361;SDS011;68830;47.566;19.012;2023-07-28T12:20:16;3.20;;;2.70;;
79361;SDS011;68830;47.566;19.012;2023-07-28T12:23:19;6.75;;;2.63;;
79361;SDS011;68830;47.566;19.012;2023-07-28T12:26:26;2.58;;;2.30;;
79361;SDS011;68830;47.566;19.012;2023-07-28T12:29:28;4.97;;;2.67;;
79361;SDS011;68830;47.566;19.012;2023-07-28T12:32:32;4.28;;;2.53;;
79361;SDS011;68830;47.566;19.012;2023-07-28T12:35:37;3.67;;;2.58;;
79361;SDS011;68830;47.566;19.012;2023-07-28T12:38:42;2.90;;;2.30;;
79361;SDS011;68830;47.566;19.012;2023-07-28T12:41:46;3.72;;;2.25;;
79361;SDS011;68830;47.566;19.012;2023-07-28T12:45:09;2.88;;;2.53;;
79361;SDS011;68830;47.566;19.012;2023-07-28T12:48:15;2.92;;;2.63;;
79361;SDS011;68830;47.566;19.012;2023-07-28T12:51:20;4.30;;;2.88;;
79361;SDS011;68830;47.566;19.012;2023-07-28T12:54:25;3.30;;;2.45;;
79361;SDS011;68830;47.566;19.012;2023-07-28T12:57:28;3.33;;;2.28;;
79361;SDS011;68830;47.566;19.012;2023-07-28T13:00:31;4.18;;;2.15;;
79361;SDS011;68830;47.566;19.012;2023-07-28T13:03:36;3.10;;;2.80;;
79361;SDS011;68830;47.566;19.012;2023-07-28T13:06:39;3.08;;;2.58;;
79361;SDS011;68830;47.566;19.012;2023-07-28T13:09:42;4.63;;;2.58;;
79361;SDS011;68830;47.566;19.012;2023-07-28T13:12:46;4.00;;;2.42;;
79361;SDS011;68830;47.566;19.012;2023-07-28T13:15:50;4.80;;;2.70;;
79361;SDS011;68830;47.566;19.012;2023-07-28T13:18:52;3.22;;;2.55;;
79361;SDS011;68830;47.566;19.012;2023-07-28T13:21:54;4.57;;;2.75;;
79361;SDS011;68830;47.566;19.012;2023-07-28T13:24:56;4.47;;;2.30;;
79361;SDS011;68830;47.566;19.012;2023-07-28T13:28:00;6.80;;;3.20;;
79361;SDS011;68830;47.566;19.012;2023-07-28T13:31:02;3.60;;;3.22;;
79361;SDS011;68830;47.566;19.012;2023-07-28T13:34:06;4.07;;;2.67;;
79361;SDS011;68830;47.566;19.012;2023-07-28T13:37:09;3.47;;;2.58;;
79361;SDS011;68830;47.566;19.012;2023-07-28T13:40:11;3.10;;;2.40;;
79361;SDS011;68830;47.566;19.012;2023-07-28T13:43:15;4.22;;;2.83;;
79361;SDS011;68830;47.566;19.012;2023-07-28T13:46:18;2.50;;;2.28;;
79361;SDS011;68830;47.566;19.012;2023-07-28T13:49:20;3.00;;;2.40;;
79361;SDS011;68830;47.566;19.012;2023-07-28T13:52:23;3.65;;;2.10;;
79361;SDS011;68830;47.566;19.012;2023-07-28T13:55:25;4.97;;;3.00;;
79361;SDS011;68830;47.566;19.012;2023-07-28T13:58:31;3.05;;;2.50;;
79361;SDS011;68830;47.566;19.012;2023-07-28T14:01:33;3.40;;;2.42;;
79361;SDS011;68830;47.566;19.012;2023-07-28T14:04:35;10.85;;;2.58;;
79361;SDS011;68830;47.566;19.012;2023-07-28T14:07:38;5.95;;;2.63;;
79361;SDS011;68830;47.566;19.012;2023-07-28T14:10:43;2.40;;;2.20;;
79361;SDS011;68830;47.566;19.012;2023-07-28T14:13:47;2.92;;;2.30;;
79361;SDS011;68830;47.566;19.012;2023-07-28T14:16:49;3.67;;;2.25;;
79361;SDS011;68830;47.566;19.012;2023-07-28T14:19:51;3.35;;;2.60;;
79361;SDS011;68830;47.566;19.012;2023-07-28T14:22:54;2.55;;;2.33;;
79361;SDS011;68830;47.566;19.012;2023-07-28T14:25:56;3.60;;;2.60;;
79361;SDS011;68830;47.566;19.012;2023-07-28T14:29:00;3.75;;;2.80;;
79361;SDS011;68830;47.566;19.012;2023-07-28T14:32:02;3.20;;;2.67;;
79361;SDS011;68830;47.566;19.012;2023-07-28T14:35:04;3.80;;;3.05;;
79361;SDS011;68830;47.566;19.012;2023-07-28T14:38:07;3.85;;;2.88;;
79361;SDS011;68830;47.566;19.012;2023-07-28T14:41:09;4.53;;;2.47;;
79361;SDS011;68830;47.566;19.012;2023-07-28T14:44:13;4.00;;;2.42;;
79361;SDS011;68830;47.566;19.012;2023-07-28T14:47:18;6.57;;;2.63;;
79361;SDS011;68830;47.566;19.012;2023-07-28T14:50:20;3.65;;;2.58;;
79361;SDS011;68830;47.566;19.012;2023-07-28T14:53:29;2.72;;;2.17;;
79361;SDS011;68830;47.566;19.012;2023-07-28T14:56:32;4.32;;;2.60;;
79361;SDS011;68830;47.566;19.012;2023-07-28T14:59:36;4.25;;;2.50;;
79361;SDS011;68830;47.566;19.012;2023-07-28T15:02:38;2.78;;;2.30;;
79361;SDS011;68830;47.566;19.012;2023-07-28T15:05:41;22.88;;;3.17;;
79361;SDS011;68830;47.566;19.012;2023-07-28T15:08:43;4.65;;;2.95;;
79361;SDS011;68830;47.566;19.012;2023-07-28T15:11:45;4.30;;;2.60;;
79361;SDS011;68830;47.566;19.012;2023-07-28T15:14:48;2.88;;;2.58;;
79361;SDS011;68830;47.566;19.012;2023-07-28T15:17:50;3.95;;;2.30;;
79361;SDS011;68830;47.566;19.012;2023-07-28T15:20:53;3.72;;;2.60;;
79361;SDS011;68830;47.566;19.012;2023-07-28T15:23:57;4.05;;;3.22;;
79361;SDS011;68830;47.566;19.012;2023-07-28T15:26:59;2.40;;;2.20;;
79361;SDS011;68830;47.566;19.012;2023-07-28T15:30:03;3.30;;;2.50;;
79361;SDS011;68830;47.566;19.012;2023-07-28T15:33:06;2.65;;;2.22;;
79361;SDS011;68830;47.566;19.012;2023-07-28T15:36:10;3.92;;;2.53;;
79361;SDS011;68830;47.566;19.012;2023-07-28T15:39:11;3.58;;;2.85;;
79361;SDS011;68830;47.566;19.012;2023-07-28T15:42:14;3.47;;;2.97;;
79361;SDS011;68830;47.566;19.012;2023-07-28T15:45:17;4.70;;;2.85;;
79361;SDS011;68830;47.566;19.012;2023-07-28T15:48:19;4.78;;;2.95;;
79361;SDS011;68830;47.566;19.012;2023-07-28T15:51:21;3.88;;;2.60;;
79361;SDS011;68830;47.566;19.012;2023-07-28T15:54:23;4.90;;;2.78;;
79361;SDS011;68830;47.566;19.012;2023-07-28T15:57:26;4.93;;;2.72;;
79361;SDS011;68830;47.566;19.012;2023-07-28T16:00:29;3.88;;;2.55;;
79361;SDS011;68830;47.566;19.012;2023-07-28T16:03:31;10.13;;;3.08;;
79361;SDS011;68830;47.566;19.012;2023-07-28T16:06:34;2.95;;;2.63;;
79361;SDS011;68830;47.566;19.012;2023-07-28T16:09:35;3.35;;;2.40;;
79361;SDS011;68830;47.566;19.012;2023-07-28T16:12:38;22.27;;;3.88;;
79361;SDS011;68830;47.566;19.012;2023-07-28T16:15:42;23.27;;;5.95;;
79361;SDS011;68830;47.566;19.012;2023-07-28T16:18:44;10.50;;;5.68;;
79361;SDS011;68830;47.566;19.012;2023-07-28T16:21:46;12.45;;;6.90;;
79361;SDS011;68830;47.566;19.012;2023-07-28T16:24:49;9.07;;;6.68;;
79361;SDS011;68830;47.566;19.012;2023-07-28T16:27:50;20.17;;;8.75;;
79361;SDS011;68830;47.566;19.012;2023-07-28T16:30:54;9.95;;;7.65;;
79361;SDS011;68830;47.566;19.012;2023-07-28T16:33:56;14.38;;;7.72;;
79361;SDS011;68830;47.566;19.012;2023-07-28T16:36:58;10.57;;;6.80;;
79361;SDS011;68830;47.566;19.012;2023-07-28T16:40:00;7.22;;;6.47;;
79361;SDS011;68830;47.566;19.012;2023-07-28T16:43:02;10.65;;;7.63;;
79361;SDS011;68830;47.566;19.012;2023-07-28T16:46:07;12.88;;;7.88;;
79361;SDS011;68830;47.566;19.012;2023-07-28T16:49:13;8.93;;;8.13;;
79361;SDS011;68830;47.566;19.012;2023-07-28T16:52:15;9.23;;;7.20;;
79361;SDS011;68830;47.566;19.012;2023-07-28T16:55:17;9.43;;;7.85;;
79361;SDS011;68830;47.566;19.012;2023-07-28T16:58:19;9.95;;;7.93;;
79361;SDS011;68830;47.566;19.012;2023-07-28T17:01:23;12.40;;;8.48;;
79361;SDS011;68830;47.566;19.012;2023-07-28T17:04:25;12.18;;;8.90;;
79361;SDS011;68830;47.566;19.012;2023-07-28T17:07:27;9.55;;;7.20;;
79361;SDS011;68830;47.566;19.012;2023-07-28T17:10:30;7.97;;;6.75;;
79361;SDS011;68830;47.566;19.012;2023-07-28T17:13:31;9.52;;;7.50;;
79361;SDS011;68830;47.566;19.012;2023-07-28T17:16:36;10.18;;;8.88;;
79361;SDS011;68830;47.566;19.012;2023-07-28T17:19:38;11.15;;;6.82;;
79361;SDS011;68830;47.566;19.012;2023-07-28T17:22:40;13.18;;;7.50;;
79361;SDS011;68830;47.566;19.012;2023-07-28T17:25:42;6.25;;;5.60;;
79361;SDS011;68830;47.566;19.012;2023-07-28T17:28:44;6.32;;;5.45;;
79361;SDS011;68830;47.566;19.012;2023-07-28T17:31:48;7.78;;;6.18;;
79361;SDS011;68830;47.566;19.012;2023-07-28T17:34:51;7.35;;;6.55;;
79361;SDS011;68830;47.566;19.012;2023-07-28T17:37:53;7.07;;;6.45;;
79361;SDS011;68830;47.566;19.012;2023-07-28T17:40:55;8.77;;;6.68;;
79361;SDS011;68830;47.566;19.012;2023-07-28T17:43:57;7.72;;;6.97;;
79361;SDS011;68830;47.566;19.012;2023-07-28T17:47:01;6.82;;;6.13;;
79361;SDS011;68830;47.566;19.012;2023-07-28T17:50:04;6.50;;;5.90;;
79361;SDS011;68830;47.566;19.012;2023-07-28T17:53:07;5.85;;;5.28;;
79361;SDS011;68830;47.566;19.012;2023-07-28T17:56:09;7.43;;;6.72;;
79361;SDS011;68830;47.566;19.012;2023-07-28T17:59:11;7.85;;;7.13;;
79361;SDS011;68830;47.566;19.012;2023-07-28T18:02:15;7.28;;;6.13;;
79361;SDS011;68830;47.566;19.012;2023-07-28T18:05:17;5.70;;;5.20;;
79361;SDS011;68830;47.566;19.012;2023-07-28T18:08:20;7.75;;;6.60;;
79361;SDS011;68830;47.566;19.012;2023-07-28T18:11:22;5.80;;;5.30;;
79361;SDS011;68830;47.566;19.012;2023-07-28T18:14:24;6.40;;;5.78;;